createdAt,value
2019-02-12T00:03:10.303Z,99.90
2019-02-12T00:07:56.281Z,99.90
2019-02-12T00:12:42.287Z,99.90
2019-02-12T00:17:28.119Z,99.90
2019-02-12T00:22:14.029Z,99.90
2019-02-12T00:26:59.889Z,99.90
2019-02-12T00:31:45.755Z,99.90
2019-02-12T00:36:31.681Z,99.90
2019-02-12T00:41:17.831Z,99.90
2019-02-12T00:46:03.706Z,99.90
2019-02-12T00:50:49.523Z,99.90
2019-02-12T00:55:35.603Z,99.90
2019-02-12T01:00:21.427Z,99.90
2019-02-12T01:05:07.438Z,99.90
2019-02-12T01:09:53.436Z,99.90
2019-02-12T01:14:39.314Z,99.90
2019-02-12T01:19:25.147Z,99.90
2019-02-12T01:24:10.934Z,99.90
2019-02-12T01:28:56.664Z,99.90
2019-02-12T01:33:43.154Z,99.90
2019-02-12T01:38:28.940Z,99.90
2019-02-12T01:43:14.691Z,99.90
2019-02-12T01:48:00.503Z,99.90
2019-02-12T01:52:46.464Z,99.90
2019-02-12T01:57:32.335Z,99.90
2019-02-12T02:02:18.183Z,99.90
2019-02-12T02:07:03.853Z,99.90
2019-02-12T02:11:49.599Z,99.90
2019-02-12T02:16:35.311Z,99.90
2019-02-12T02:21:21.245Z,99.90
2019-02-12T02:26:07.020Z,99.90
2019-02-12T02:30:52.829Z,99.90
2019-02-12T02:35:38.638Z,99.90
2019-02-12T02:40:24.409Z,99.90
2019-02-12T02:45:10.931Z,99.90
2019-02-12T02:49:56.704Z,99.90
2019-02-12T02:54:42.542Z,99.90
2019-02-12T02:59:28.492Z,99.90
2019-02-12T03:04:14.330Z,99.90
2019-02-12T03:09:00.154Z,99.90
2019-02-12T03:13:45.855Z,99.90
2019-02-12T03:18:31.715Z,99.90
2019-02-12T03:23:17.423Z,99.90
2019-02-12T03:28:03.186Z,99.90
2019-02-12T03:32:48.920Z,99.90
2019-02-12T03:37:34.652Z,99.90
2019-02-12T03:42:20.373Z,99.90
2019-02-12T03:47:06.152Z,99.90
2019-02-12T03:51:51.823Z,99.90
2019-02-12T03:56:37.662Z,99.90
2019-02-12T04:01:23.675Z,99.90
2019-02-12T04:06:09.443Z,99.90
2019-02-12T04:10:55.187Z,99.90
2019-02-12T04:15:40.936Z,99.90
2019-02-12T04:20:26.625Z,99.90
2019-02-12T04:25:12.365Z,99.90
2019-02-12T04:29:58.091Z,99.90
2019-02-12T04:34:43.854Z,99.90
2019-02-12T04:39:29.539Z,99.90
2019-02-12T04:44:15.346Z,99.90
2019-02-12T04:49:01.064Z,99.90
2019-02-12T04:53:46.909Z,99.90
2019-02-12T04:58:32.631Z,99.90
2019-02-12T05:03:18.342Z,99.90
2019-02-12T05:08:04.093Z,99.90
2019-02-12T05:12:50.003Z,99.90
2019-02-12T05:17:35.731Z,99.90
2019-02-12T05:22:21.526Z,99.90
2019-02-12T05:27:07.288Z,99.90
2019-02-12T05:31:53.062Z,99.90
2019-02-12T05:36:38.770Z,99.90
2019-02-12T05:41:24.522Z,99.90
2019-02-12T05:46:10.239Z,99.90
2019-02-12T05:50:56.029Z,99.90
2019-02-12T05:55:41.792Z,99.90
2019-02-12T06:00:29.784Z,99.90
2019-02-12T06:05:29.438Z,99.90
2019-02-12T06:10:15.339Z,99.90
2019-02-12T06:15:01.341Z,99.90
2019-02-12T06:19:47.043Z,99.90
2019-02-12T06:24:32.821Z,99.90
2019-02-12T06:29:18.632Z,99.90
2019-02-12T06:34:04.513Z,99.90
2019-02-12T06:38:50.347Z,99.90
2019-02-12T06:43:36.119Z,99.90
2019-02-12T06:48:21.881Z,99.90
2019-02-12T06:53:12.530Z,99.90
2019-02-12T06:57:56.914Z,99.90
2019-02-12T07:03:08.231Z,99.90
2019-02-12T07:08:32.651Z,99.90
2019-02-12T07:13:40.000Z,99.90
2019-02-12T07:19:02.290Z,99.90
2019-02-12T07:24:30.570Z,99.90
2019-02-12T07:29:49.279Z,99.90
2019-02-12T07:35:28.196Z,99.90
2019-02-12T07:40:24.904Z,99.90
2019-02-12T07:45:32.834Z,99.90
2019-02-12T07:51:16.708Z,99.90
2019-02-12T07:56:26.671Z,99.90
2019-02-12T08:01:40.099Z,99.90
2019-02-12T08:07:12.860Z,99.90
2019-02-12T08:12:39.665Z,99.90
2019-02-12T08:18:11.367Z,99.90
2019-02-12T08:23:20.492Z,99.90
2019-02-12T08:28:20.421Z,99.90
2019-02-12T08:33:41.813Z,99.90
2019-02-12T08:39:01.629Z,99.90
2019-02-12T08:44:26.067Z,99.90
2019-02-12T08:49:38.381Z,99.90
2019-02-12T08:55:00.486Z,99.90
2019-02-12T09:00:26.952Z,99.90
2019-02-12T09:05:45.086Z,99.90
2019-02-12T09:11:20.824Z,99.90
2019-02-12T09:16:57.820Z,99.90
2019-02-12T09:22:54.770Z,99.90
2019-02-12T09:28:23.553Z,99.90
2019-02-12T09:33:34.786Z,99.90
2019-02-12T09:38:45.124Z,99.90
2019-02-12T09:44:17.771Z,99.90
2019-02-12T09:49:42.510Z,99.90
2019-02-12T09:55:03.133Z,99.90
2019-02-12T10:00:19.363Z,99.90
2019-02-12T10:05:52.514Z,99.90
2019-02-12T10:11:18.428Z,99.90
2019-02-12T10:16:51.139Z,99.90
2019-02-12T10:22:09.368Z,99.90
2019-02-12T10:27:07.659Z,99.90
2019-02-12T10:31:51.736Z,99.90
2019-02-12T10:36:37.754Z,99.90
2019-02-12T10:41:23.593Z,99.90
2019-02-12T10:46:09.603Z,99.90
2019-02-12T10:50:55.552Z,99.90
2019-02-12T10:55:41.650Z,99.90
2019-02-12T11:00:27.517Z,99.90
2019-02-12T11:05:13.579Z,99.90
2019-02-12T11:10:00.343Z,99.90
2019-02-12T11:14:46.229Z,99.90
2019-02-12T11:19:32.583Z,99.90
2019-02-12T11:24:18.794Z,99.90
2019-02-12T11:29:04.757Z,99.90
2019-02-12T11:33:50.502Z,99.90
2019-02-12T11:38:36.386Z,99.90
2019-02-12T11:43:22.165Z,99.90
2019-02-12T11:48:07.956Z,99.90
2019-02-12T11:52:53.680Z,76.70
2019-02-12T11:57:39.481Z,65.70
2019-02-12T12:02:28.818Z,66.60
2019-02-12T12:07:14.657Z,70.20
2019-02-12T12:12:00.417Z,70.00
2019-02-12T12:16:46.225Z,73.00
2019-02-12T12:21:32.164Z,70.70
2019-02-12T12:26:18.026Z,76.50
2019-02-12T12:31:03.788Z,72.40
2019-02-12T12:35:49.588Z,74.40
2019-02-12T12:40:35.342Z,73.60
2019-02-12T12:45:21.279Z,93.80
2019-02-12T12:50:08.447Z,99.90
2019-02-12T12:54:59.702Z,99.90
2019-02-12T12:59:41.668Z,99.70
2019-02-12T13:04:27.659Z,95.10
2019-02-12T13:09:13.516Z,94.90
2019-02-12T13:13:59.356Z,98.10
2019-02-12T13:18:45.072Z,96.50
2019-02-12T13:23:30.973Z,89.90
2019-02-12T13:28:16.777Z,92.70
2019-02-12T13:33:02.525Z,78.10
2019-02-12T13:37:48.266Z,75.10
2019-02-12T13:42:34.038Z,79.90
2019-02-12T13:47:19.788Z,72.30
2019-02-12T13:52:05.750Z,72.10
2019-02-12T13:56:51.597Z,78.70
2019-02-12T14:01:37.477Z,77.10
2019-02-12T14:06:23.562Z,86.40
2019-02-12T14:11:09.469Z,76.00
2019-02-12T14:15:55.186Z,69.70
2019-02-12T14:20:41.084Z,64.60
2019-02-12T14:25:26.860Z,55.50
2019-02-12T14:30:14.271Z,48.90
2019-02-12T14:35:00.315Z,44.00
2019-02-12T14:39:46.066Z,44.30
2019-02-12T14:44:31.959Z,48.90
2019-02-12T14:49:17.747Z,52.90
2019-02-12T14:54:03.494Z,56.50
2019-02-12T14:58:49.372Z,58.30
2019-02-12T15:03:35.447Z,60.30
2019-02-12T15:08:21.247Z,59.60
2019-02-12T15:13:07.055Z,59.60
2019-02-12T15:17:53.165Z,61.50
2019-02-12T15:22:38.930Z,63.80
2019-02-12T15:27:24.821Z,63.60
2019-02-12T15:32:10.866Z,65.60
2019-02-12T15:36:56.757Z,68.00
2019-02-12T15:41:42.721Z,76.80
2019-02-12T15:46:28.480Z,74.50
2019-02-12T15:51:14.251Z,73.20
2019-02-12T15:56:00.087Z,74.20
2019-02-12T16:00:46.170Z,76.90
2019-02-12T16:05:32.817Z,84.40
2019-02-12T16:10:19.827Z,87.50
2019-02-12T16:15:06.367Z,92.10
2019-02-12T16:19:52.360Z,95.60
2019-02-12T16:24:38.102Z,93.80
2019-02-12T16:29:23.845Z,95.00
2019-02-12T16:34:11.073Z,97.50
2019-02-12T16:38:56.990Z,99.70
2019-02-12T16:43:42.742Z,99.90
2019-02-12T16:48:29.595Z,99.90
2019-02-12T16:53:15.329Z,99.90
2019-02-12T16:58:01.176Z,99.90
2019-02-12T17:02:47.109Z,99.90
2019-02-12T17:07:33.079Z,99.90
2019-02-12T17:12:18.864Z,99.90
2019-02-12T17:17:04.747Z,99.90
2019-02-12T17:21:50.463Z,99.90
2019-02-12T17:26:36.313Z,99.90
2019-02-12T17:31:22.116Z,99.90
2019-02-12T17:36:08.101Z,99.90
2019-02-12T17:40:53.961Z,99.90
2019-02-12T17:45:39.832Z,99.90
2019-02-12T17:50:25.870Z,99.90
2019-02-12T17:55:11.979Z,99.90
2019-02-12T17:59:58.057Z,99.90
2019-02-12T18:04:43.974Z,99.90
2019-02-12T18:09:29.726Z,99.90
2019-02-12T18:14:15.523Z,99.90
2019-02-12T18:19:01.344Z,99.90
2019-02-12T18:23:47.290Z,99.90
2019-02-12T18:28:33.478Z,99.90
2019-02-12T18:33:19.597Z,99.90
2019-02-12T18:38:05.654Z,99.90
2019-02-12T18:42:51.406Z,99.90
2019-02-12T18:47:37.369Z,99.90
2019-02-12T18:52:23.494Z,99.90
2019-02-12T18:57:09.399Z,99.90
2019-02-12T19:01:55.199Z,99.90
2019-02-12T19:06:41.210Z,99.90
2019-02-12T19:11:27.122Z,99.90
2019-02-12T19:16:13.089Z,99.90
2019-02-12T19:20:59.001Z,99.90
2019-02-12T19:25:45.026Z,99.90
2019-02-12T19:30:31.229Z,99.90
2019-02-12T19:35:17.201Z,99.90
2019-02-12T19:40:03.030Z,99.90
2019-02-12T19:44:49.021Z,99.90
2019-02-12T19:49:35.129Z,99.90
2019-02-12T19:54:21.695Z,99.90
2019-02-12T19:59:07.759Z,99.90
2019-02-12T20:03:53.837Z,99.90
2019-02-12T20:08:40.532Z,99.90
2019-02-12T20:13:26.542Z,99.90
2019-02-12T20:18:12.596Z,99.90
2019-02-12T20:22:58.823Z,99.90
2019-02-12T20:27:45.010Z,99.90
2019-02-12T20:32:31.302Z,99.90
2019-02-12T20:37:17.397Z,99.90
2019-02-12T20:42:03.421Z,99.90
2019-02-12T20:46:49.787Z,99.90
2019-02-12T20:51:36.461Z,99.90
2019-02-12T20:56:22.425Z,99.90
2019-02-12T21:01:08.760Z,99.90
2019-02-12T21:05:54.749Z,99.90
2019-02-12T21:10:40.668Z,99.90
2019-02-12T21:15:26.570Z,99.90
2019-02-12T21:20:12.655Z,99.90
2019-02-12T21:24:58.927Z,99.90
2019-02-12T21:29:44.961Z,99.90
2019-02-12T21:34:31.593Z,99.90
2019-02-12T21:39:20.777Z,99.90
2019-02-12T21:44:09.933Z,99.90
2019-02-12T21:48:56.033Z,99.90
2019-02-12T21:53:41.912Z,99.90
2019-02-12T21:58:27.909Z,99.90
2019-02-12T22:03:13.834Z,99.90
2019-02-12T22:07:59.679Z,99.90
2019-02-12T22:12:45.701Z,99.90
2019-02-12T22:17:31.668Z,99.90
2019-02-12T22:22:17.561Z,99.90
2019-02-12T22:27:03.634Z,99.90
2019-02-12T22:31:49.513Z,99.90
2019-02-12T22:36:35.406Z,99.90
2019-02-12T22:41:21.420Z,99.90
2019-02-12T22:46:08.433Z,99.90
2019-02-12T22:50:54.367Z,99.90
2019-02-12T22:55:40.309Z,99.90
2019-02-12T23:00:40.011Z,99.90
2019-02-12T23:05:26.077Z,99.90
2019-02-12T23:10:12.127Z,99.90
2019-02-12T23:14:58.480Z,99.90
2019-02-12T23:19:44.524Z,99.90
2019-02-12T23:24:30.444Z,99.90
2019-02-12T23:29:16.679Z,99.90
2019-02-12T23:34:02.614Z,99.90
2019-02-12T23:38:48.372Z,99.90
2019-02-12T23:43:34.233Z,99.90
2019-02-12T23:48:20.038Z,99.90
2019-02-12T23:53:05.983Z,99.90
2019-02-12T23:57:51.857Z,99.90
